createdAt,value
2022-07-31T00:01:06.382Z,33.60
2022-07-31T00:03:35.663Z,34.39
2022-07-31T00:06:04.879Z,33.62
2022-07-31T00:08:34.243Z,34.42
2022-07-31T00:11:03.384Z,33.40
2022-07-31T00:13:57.541Z,33.30
2022-07-31T00:16:03.654Z,34.07
2022-07-31T00:18:35.327Z,34.07
2022-07-31T00:21:04.916Z,34.82
2022-07-31T00:23:34.181Z,33.07
2022-07-31T00:26:03.411Z,33.50
2022-07-31T00:28:32.575Z,33.59
2022-07-31T00:31:01.776Z,33.80
2022-07-31T00:33:31.181Z,33.25
2022-07-31T00:36:00.378Z,33.40
2022-07-31T00:38:29.573Z,33.60
2022-07-31T00:40:59.202Z,33.78
2022-07-31T00:43:30.677Z,32.90
2022-07-31T00:45:59.628Z,33.07
2022-07-31T00:48:28.924Z,33.07
2022-07-31T00:50:59.052Z,33.72
2022-07-31T00:53:28.244Z,32.66
2022-07-31T00:55:57.887Z,32.31
2022-07-31T00:58:27.310Z,32.96
2022-07-31T01:00:56.584Z,32.18
2022-07-31T01:03:25.753Z,32.94
2022-07-31T01:05:54.950Z,32.30
2022-07-31T01:08:24.149Z,32.64
2022-07-31T01:10:59.214Z,32.55
2022-07-31T01:13:40.461Z,32.34
2022-07-31T01:16:12.529Z,31.92
2022-07-31T01:18:43.605Z,32.32
2022-07-31T01:21:15.633Z,32.90
2022-07-31T01:23:55.188Z,32.43
2022-07-31T01:26:46.901Z,32.56
2022-07-31T01:29:18.991Z,32.72
2022-07-31T01:31:51.152Z,32.72
2022-07-31T01:34:29.446Z,31.98
2022-07-31T01:37:01.913Z,31.98
2022-07-31T01:39:34.314Z,32.14
2022-07-31T01:42:06.990Z,31.61
2022-07-31T01:44:39.038Z,32.22
2022-07-31T01:47:09.294Z,31.39
2022-07-31T01:49:41.274Z,31.39
2022-07-31T01:52:12.996Z,32.18
2022-07-31T01:54:43.118Z,32.89
2022-07-31T01:57:14.361Z,32.71
2022-07-31T01:59:45.459Z,31.76
2022-07-31T02:02:17.155Z,31.80
2022-07-31T02:04:47.739Z,31.80
2022-07-31T02:07:18.714Z,32.67
2022-07-31T02:09:53.696Z,32.16
2022-07-31T02:12:33.429Z,32.39
2022-07-31T02:14:53.348Z,32.39
2022-07-31T02:17:22.889Z,31.97
2022-07-31T02:19:59.710Z,31.62
2022-07-31T02:22:26.190Z,32.43
2022-07-31T02:24:56.628Z,32.43
2022-07-31T02:27:53.741Z,32.30
2022-07-31T02:30:01.923Z,32.56
2022-07-31T02:32:33.449Z,31.86
2022-07-31T02:35:04.549Z,32.01
2022-07-31T02:37:36.214Z,32.36
2022-07-31T02:40:07.941Z,32.24
2022-07-31T02:42:38.293Z,32.24
2022-07-31T02:45:10.015Z,32.20
2022-07-31T02:47:40.088Z,32.26
2022-07-31T02:50:11.784Z,32.91
2022-07-31T02:52:41.212Z,33.89
2022-07-31T02:55:11.753Z,34.56
2022-07-31T02:57:44.364Z,34.56
2022-07-31T03:00:23.882Z,34.34
2022-07-31T03:02:54.476Z,34.63
2022-07-31T03:05:24.083Z,36.15
2022-07-31T03:07:53.699Z,35.27
2022-07-31T03:10:22.933Z,36.48
2022-07-31T03:12:54.616Z,36.48
2022-07-31T03:15:26.867Z,36.80
2022-07-31T03:17:56.978Z,35.59
2022-07-31T03:20:29.882Z,35.59
2022-07-31T03:23:00.596Z,36.41
2022-07-31T03:25:30.295Z,38.34
2022-07-31T03:28:00.426Z,38.44
2022-07-31T03:30:29.647Z,37.34
2022-07-31T03:33:01.085Z,37.34
2022-07-31T03:35:30.628Z,38.57
2022-07-31T03:37:59.813Z,38.32
2022-07-31T03:40:29.007Z,38.32
2022-07-31T03:42:59.206Z,38.34
2022-07-31T03:45:29.220Z,39.23
2022-07-31T03:47:58.687Z,38.23
2022-07-31T03:50:28.613Z,38.23
2022-07-31T03:52:58.933Z,38.88
2022-07-31T03:55:28.952Z,38.92
2022-07-31T03:57:58.695Z,38.13
2022-07-31T04:00:28.684Z,39.22
2022-07-31T04:02:59.425Z,38.68
2022-07-31T04:05:28.887Z,39.28
2022-07-31T04:07:59.651Z,38.64
2022-07-31T04:10:29.082Z,39.69
2022-07-31T04:12:58.400Z,39.69
2022-07-31T04:15:27.771Z,39.31
2022-07-31T04:17:57.089Z,39.22
2022-07-31T04:20:26.282Z,40.43
2022-07-31T04:22:55.893Z,39.27
2022-07-31T04:25:25.192Z,39.60
2022-07-31T04:27:54.388Z,39.60
2022-07-31T04:30:23.695Z,39.48
2022-07-31T04:32:52.913Z,40.62
2022-07-31T04:35:22.543Z,40.62
2022-07-31T04:37:51.691Z,40.71
2022-07-31T04:40:20.930Z,40.33
2022-07-31T04:42:50.099Z,41.90
2022-07-31T04:45:19.452Z,42.23
2022-07-31T04:47:48.589Z,41.25
2022-07-31T04:50:17.808Z,41.93
2022-07-31T04:52:47.029Z,41.93
2022-07-31T04:55:16.181Z,42.10
2022-07-31T04:57:45.400Z,42.69
2022-07-31T05:00:15.466Z,42.57
2022-07-31T05:02:44.596Z,43.28
2022-07-31T05:05:13.792Z,43.28
2022-07-31T05:07:42.886Z,43.36
2022-07-31T05:10:14.338Z,42.35
2022-07-31T05:12:43.563Z,42.83
2022-07-31T05:15:14.477Z,43.50
2022-07-31T05:17:43.825Z,42.47
2022-07-31T05:20:13.559Z,43.55
2022-07-31T05:22:42.924Z,42.99
2022-07-31T05:25:12.089Z,42.82
2022-07-31T05:27:41.473Z,43.28
2022-07-31T05:30:11.877Z,43.40
2022-07-31T05:32:41.139Z,43.40
2022-07-31T05:35:10.838Z,43.34
2022-07-31T05:37:40.026Z,44.19
2022-07-31T05:40:10.001Z,43.26
2022-07-31T05:42:39.261Z,44.39
2022-07-31T05:45:09.077Z,45.08
2022-07-31T05:47:39.797Z,45.12
2022-07-31T05:50:09.870Z,43.51
2022-07-31T05:52:39.231Z,43.50
2022-07-31T05:55:11.449Z,43.88
2022-07-31T05:57:40.590Z,44.77
2022-07-31T06:00:11.118Z,45.58
2022-07-31T06:02:40.609Z,46.33
2022-07-31T06:05:10.627Z,46.88
2022-07-31T06:07:39.834Z,46.86
2022-07-31T06:10:11.276Z,47.09
2022-07-31T06:12:40.479Z,45.75
2022-07-31T06:15:10.460Z,47.63
2022-07-31T06:17:44.951Z,47.63
2022-07-31T06:20:14.930Z,46.99
2022-07-31T06:22:44.227Z,46.39
2022-07-31T06:25:14.947Z,47.73
2022-07-31T06:27:49.909Z,46.17
2022-07-31T06:30:16.084Z,46.45
2022-07-31T06:32:45.215Z,46.73
2022-07-31T06:35:15.056Z,46.27
2022-07-31T06:37:44.125Z,45.25
2022-07-31T06:40:14.783Z,45.36
2022-07-31T06:42:45.512Z,45.90
2022-07-31T06:45:25.221Z,45.13
2022-07-31T06:47:46.446Z,44.65
2022-07-31T06:50:16.054Z,43.14
2022-07-31T06:52:45.321Z,42.29
2022-07-31T06:55:14.757Z,42.58
2022-07-31T06:57:43.956Z,41.60
2022-07-31T07:00:15.220Z,42.82
2022-07-31T07:02:44.947Z,42.70
2022-07-31T07:05:14.727Z,43.97
2022-07-31T07:07:43.922Z,42.91
2022-07-31T07:10:13.033Z,41.80
2022-07-31T07:12:42.242Z,41.80
2022-07-31T07:15:12.663Z,44.30
2022-07-31T07:17:42.352Z,44.30
2022-07-31T07:20:12.066Z,43.23
2022-07-31T07:22:41.264Z,43.78
2022-07-31T07:25:10.495Z,43.78
2022-07-31T07:27:40.481Z,44.43
2022-07-31T07:30:11.342Z,44.11
2022-07-31T07:32:40.536Z,43.67
2022-07-31T07:35:11.559Z,43.70
2022-07-31T07:37:43.511Z,44.42
2022-07-31T07:40:13.255Z,42.81
2022-07-31T07:42:42.628Z,42.81
2022-07-31T07:45:12.515Z,42.60
2022-07-31T07:48:02.343Z,43.08
2022-07-31T07:50:15.959Z,41.42
2022-07-31T07:52:45.670Z,44.39
2022-07-31T07:55:15.801Z,43.84
2022-07-31T07:57:46.709Z,43.84
2022-07-31T08:00:16.555Z,45.24
2022-07-31T08:03:02.884Z,45.45
2022-07-31T08:05:18.674Z,45.81
2022-07-31T08:07:47.815Z,44.27
2022-07-31T08:10:18.663Z,43.58
2022-07-31T08:12:48.063Z,43.84
2022-07-31T08:15:17.205Z,44.52
2022-07-31T08:17:47.256Z,44.52
2022-07-31T08:20:16.486Z,43.60
2022-07-31T08:22:45.565Z,44.78
2022-07-31T08:25:15.158Z,43.18
2022-07-31T08:27:44.573Z,44.00
2022-07-31T08:30:15.816Z,44.00
2022-07-31T08:32:44.914Z,43.27
2022-07-31T08:35:14.010Z,43.27
2022-07-31T08:37:51.849Z,44.21
2022-07-31T08:40:14.964Z,43.80
2022-07-31T08:42:45.559Z,45.65
2022-07-31T08:45:15.433Z,45.65
2022-07-31T08:47:48.237Z,46.52
2022-07-31T08:50:18.331Z,44.93
2022-07-31T08:52:49.031Z,45.04
2022-07-31T08:55:54.856Z,46.09
2022-07-31T08:57:49.599Z,46.06
2022-07-31T09:00:20.090Z,44.09
2022-07-31T09:02:49.221Z,44.09
2022-07-31T09:05:19.904Z,46.64
2022-07-31T09:07:50.092Z,46.66
2022-07-31T09:10:28.232Z,46.60
2022-07-31T09:12:58.251Z,46.45
2022-07-31T09:15:31.703Z,46.45
2022-07-31T09:18:00.954Z,46.56
2022-07-31T09:20:32.075Z,45.10
2022-07-31T09:23:09.371Z,44.09
2022-07-31T09:25:39.175Z,46.10
2022-07-31T09:28:09.099Z,46.78
2022-07-31T09:30:56.323Z,45.83
2022-07-31T09:33:17.436Z,45.83
2022-07-31T09:35:52.286Z,46.37
2022-07-31T09:38:23.340Z,46.37
2022-07-31T09:40:55.247Z,45.92
2022-07-31T09:43:25.794Z,45.92
2022-07-31T09:46:00.929Z,45.29
2022-07-31T09:48:31.463Z,46.04
2022-07-31T09:51:07.163Z,45.16
2022-07-31T09:53:47.786Z,44.85
2022-07-31T09:56:17.310Z,44.51
2022-07-31T09:58:46.682Z,47.75
2022-07-31T10:01:16.316Z,46.56
2022-07-31T10:03:48.387Z,47.24
2022-07-31T10:06:17.646Z,47.24
2022-07-31T10:08:47.583Z,47.01
2022-07-31T10:11:19.556Z,47.01
2022-07-31T10:13:51.042Z,46.68
2022-07-31T10:16:22.946Z,46.45
2022-07-31T10:18:54.966Z,44.71
2022-07-31T10:21:26.939Z,44.43
2022-07-31T10:23:58.290Z,43.11
2022-07-31T10:26:50.604Z,43.11
2022-07-31T10:28:59.609Z,41.95
2022-07-31T10:31:30.711Z,43.78
2022-07-31T10:34:00.866Z,43.41
2022-07-31T10:36:32.857Z,43.41
2022-07-31T10:39:13.184Z,43.12
2022-07-31T10:42:06.743Z,43.03
2022-07-31T10:44:41.528Z,43.03
2022-07-31T10:47:18.048Z,43.47
2022-07-31T10:49:49.773Z,43.47
2022-07-31T10:52:33.819Z,43.56
2022-07-31T10:55:03.406Z,42.55
2022-07-31T10:57:34.857Z,43.32
2022-07-31T11:00:20.943Z,42.06
2022-07-31T11:02:50.309Z,43.13
2022-07-31T11:05:23.306Z,43.91
2022-07-31T11:08:04.317Z,43.91
2022-07-31T11:10:34.354Z,42.84
2022-07-31T11:13:13.895Z,43.56
2022-07-31T11:15:43.165Z,43.56
2022-07-31T11:18:26.335Z,43.43
2022-07-31T11:20:50.907Z,43.84
2022-07-31T11:23:20.249Z,42.57
2022-07-31T11:25:49.386Z,43.64
2022-07-31T11:28:22.600Z,45.01
2022-07-31T11:30:53.746Z,43.45
2022-07-31T11:33:44.231Z,42.78
2022-07-31T11:36:17.108Z,42.78
2022-07-31T11:38:51.158Z,44.18
2022-07-31T11:41:22.906Z,43.51
2022-07-31T11:43:54.903Z,44.50
2022-07-31T11:46:30.119Z,43.48
2022-07-31T11:49:00.455Z,42.41
2022-07-31T11:51:31.392Z,43.10
2022-07-31T11:54:00.576Z,43.26
2022-07-31T11:56:29.966Z,42.47
2022-07-31T11:58:59.768Z,42.47
2022-07-31T12:01:30.702Z,43.59
2022-07-31T12:04:08.980Z,43.59
2022-07-31T12:06:34.864Z,43.01
2022-07-31T12:09:02.082Z,44.00
2022-07-31T12:11:31.408Z,43.40
2022-07-31T12:14:00.676Z,43.40
2022-07-31T12:16:31.312Z,43.32
2022-07-31T12:19:00.407Z,44.39
2022-07-31T12:21:37.556Z,43.53
2022-07-31T12:24:14.861Z,43.44
2022-07-31T12:26:52.683Z,43.82
2022-07-31T12:29:23.716Z,43.82
2022-07-31T12:31:54.981Z,44.90
2022-07-31T12:34:35.951Z,42.59
2022-07-31T12:37:08.310Z,42.03
2022-07-31T12:39:53.791Z,43.32
2022-07-31T12:42:30.567Z,44.39
2022-07-31T12:44:59.261Z,44.39
2022-07-31T12:47:33.569Z,43.93
2022-07-31T12:50:04.753Z,43.16
2022-07-31T12:52:35.243Z,42.75
2022-07-31T12:55:04.920Z,43.17
2022-07-31T12:57:34.051Z,43.84
2022-07-31T13:00:04.416Z,43.84
2022-07-31T13:02:34.764Z,44.31
2022-07-31T13:05:04.820Z,42.94
2022-07-31T13:07:34.022Z,42.94
2022-07-31T13:10:20.900Z,43.55
2022-07-31T13:12:34.055Z,43.55
2022-07-31T13:15:03.607Z,43.42
2022-07-31T13:17:32.752Z,43.98
2022-07-31T13:20:02.262Z,43.41
2022-07-31T13:22:31.390Z,44.86
2022-07-31T13:25:01.744Z,44.86
2022-07-31T13:27:31.122Z,43.89
2022-07-31T13:30:00.337Z,43.92
2022-07-31T13:32:32.089Z,41.98
2022-07-31T13:35:26.590Z,41.98
2022-07-31T13:37:35.433Z,42.49
2022-07-31T13:40:06.208Z,43.59
2022-07-31T13:42:37.485Z,43.89
2022-07-31T13:45:08.694Z,43.89
2022-07-31T13:47:50.705Z,42.53
2022-07-31T13:50:09.169Z,43.46
2022-07-31T13:52:38.228Z,43.46
2022-07-31T13:55:10.155Z,43.12
2022-07-31T13:57:39.285Z,43.12
2022-07-31T14:00:09.267Z,43.14
2022-07-31T14:02:41.564Z,43.14
2022-07-31T14:05:11.295Z,42.95
2022-07-31T14:07:48.485Z,43.52
2022-07-31T14:10:17.134Z,43.45
2022-07-31T14:12:46.820Z,43.02
2022-07-31T14:15:17.701Z,43.02
2022-07-31T14:17:47.901Z,43.55
2022-07-31T14:20:17.332Z,44.47
2022-07-31T14:22:47.433Z,44.47
2022-07-31T14:25:17.250Z,44.50
2022-07-31T14:27:46.564Z,43.52
2022-07-31T14:30:19.773Z,43.52
2022-07-31T14:32:48.032Z,43.00
2022-07-31T14:35:17.430Z,42.46
2022-07-31T14:37:48.260Z,42.46
2022-07-31T14:40:17.926Z,43.58
2022-07-31T14:42:48.381Z,43.38
2022-07-31T14:45:18.724Z,43.78
2022-07-31T14:47:48.084Z,43.50
2022-07-31T14:50:19.736Z,42.88
2022-07-31T14:52:48.168Z,42.88
2022-07-31T14:55:17.326Z,44.28
2022-07-31T14:57:46.659Z,43.45
2022-07-31T15:00:16.877Z,44.11
2022-07-31T15:02:48.188Z,44.31
2022-07-31T15:06:37.711Z,43.33
2022-07-31T15:07:49.153Z,43.61
2022-07-31T15:10:18.646Z,44.05
2022-07-31T15:12:47.672Z,44.05
2022-07-31T15:15:16.995Z,43.92
2022-07-31T15:17:46.085Z,43.20
2022-07-31T15:20:15.994Z,43.37
2022-07-31T15:22:46.077Z,43.63
2022-07-31T15:25:15.232Z,43.63
2022-07-31T15:27:45.614Z,43.71
2022-07-31T15:30:16.066Z,43.44
2022-07-31T15:32:45.221Z,43.44
2022-07-31T15:35:16.458Z,43.61
2022-07-31T15:37:45.819Z,43.61
2022-07-31T15:40:17.214Z,42.82
2022-07-31T15:42:47.835Z,43.70
2022-07-31T15:45:19.106Z,43.57
2022-07-31T15:47:49.306Z,43.07
2022-07-31T15:50:20.594Z,42.91
2022-07-31T15:52:52.012Z,42.91
2022-07-31T15:55:21.157Z,43.22
2022-07-31T15:57:50.262Z,43.17
2022-07-31T16:00:19.826Z,43.45
2022-07-31T16:02:49.397Z,43.45
2022-07-31T16:05:35.880Z,42.76
2022-07-31T16:08:31.379Z,42.65
2022-07-31T16:10:21.801Z,42.65
2022-07-31T16:12:51.086Z,42.68
2022-07-31T16:15:20.519Z,42.68
2022-07-31T16:17:49.681Z,42.97
2022-07-31T16:20:26.379Z,43.30
2022-07-31T16:22:57.557Z,43.05
2022-07-31T16:25:27.761Z,43.05
2022-07-31T16:27:57.334Z,43.11
2022-07-31T16:30:27.677Z,42.46
2022-07-31T16:32:56.855Z,42.58
2022-07-31T16:35:27.593Z,42.46
2022-07-31T16:37:57.926Z,42.46
2022-07-31T16:40:31.854Z,42.75
2022-07-31T16:43:47.276Z,42.63
2022-07-31T16:45:36.254Z,42.50
2022-07-31T16:48:06.084Z,42.50
2022-07-31T16:50:36.397Z,42.92
2022-07-31T16:53:05.541Z,41.88
2022-07-31T16:56:00.149Z,41.82
2022-07-31T16:58:07.670Z,41.82
2022-07-31T17:00:36.926Z,41.46
2022-07-31T17:03:06.007Z,41.46
2022-07-31T17:05:35.244Z,41.40
2022-07-31T17:08:04.463Z,41.27
2022-07-31T17:10:33.660Z,41.52
2022-07-31T17:13:03.004Z,41.82
2022-07-31T17:15:33.037Z,42.08
2022-07-31T17:18:02.388Z,41.77
2022-07-31T17:20:31.484Z,42.47
2022-07-31T17:23:03.394Z,42.47
2022-07-31T17:25:33.948Z,41.69
2022-07-31T17:28:03.091Z,41.28
2022-07-31T17:30:35.034Z,41.20
2022-07-31T17:33:04.125Z,40.42
2022-07-31T17:35:34.561Z,41.35
2022-07-31T17:38:03.745Z,41.33
2022-07-31T17:40:43.586Z,41.33
2022-07-31T17:43:05.448Z,41.54
2022-07-31T17:45:59.297Z,41.54
2022-07-31T17:48:08.519Z,41.56
2022-07-31T17:50:37.866Z,41.11
2022-07-31T17:53:07.157Z,41.11
2022-07-31T17:55:37.936Z,40.89
2022-07-31T17:58:07.682Z,40.86
2022-07-31T18:00:37.114Z,40.67
2022-07-31T18:03:06.279Z,40.67
2022-07-31T18:05:35.364Z,41.33
2022-07-31T18:08:04.632Z,41.38
2022-07-31T18:10:53.541Z,40.93
2022-07-31T18:13:04.910Z,40.51
2022-07-31T18:15:34.733Z,40.98
2022-07-31T18:18:05.249Z,40.80
2022-07-31T18:20:34.829Z,40.29
2022-07-31T18:23:03.974Z,40.29
2022-07-31T18:25:33.566Z,40.94
2022-07-31T18:28:02.761Z,40.43
2022-07-31T18:30:34.758Z,41.18
2022-07-31T18:33:02.792Z,40.96
2022-07-31T18:35:31.889Z,40.96
2022-07-31T18:38:00.984Z,40.65
2022-07-31T18:40:32.657Z,41.05
2022-07-31T18:43:01.894Z,40.25
2022-07-31T18:45:31.042Z,40.25
2022-07-31T18:48:00.235Z,40.80
2022-07-31T18:51:00.843Z,40.29
2022-07-31T18:53:00.370Z,40.10
2022-07-31T18:55:29.569Z,40.10
2022-07-31T18:57:59.509Z,41.02
2022-07-31T19:00:28.846Z,39.82
2022-07-31T19:02:58.216Z,40.84
2022-07-31T19:05:28.072Z,39.95
2022-07-31T19:07:57.221Z,39.95
2022-07-31T19:10:29.412Z,40.81
2022-07-31T19:12:57.259Z,40.22
2022-07-31T19:15:26.559Z,40.12
2022-07-31T19:17:58.611Z,40.12
2022-07-31T19:20:56.279Z,39.98
2022-07-31T19:22:59.350Z,40.42
2022-07-31T19:25:28.559Z,40.35
2022-07-31T19:27:57.643Z,40.07
2022-07-31T19:30:29.528Z,40.53
2022-07-31T19:32:58.707Z,39.32
2022-07-31T19:35:28.007Z,39.74
2022-07-31T19:38:01.929Z,39.71
2022-07-31T19:40:32.211Z,40.09
2022-07-31T19:43:02.401Z,39.64
2022-07-31T19:45:32.697Z,39.40
2022-07-31T19:48:02.498Z,39.99
2022-07-31T19:50:31.765Z,39.67
2022-07-31T19:53:00.895Z,39.67
2022-07-31T19:55:30.191Z,39.95
2022-07-31T19:58:01.058Z,40.35
2022-07-31T20:00:30.162Z,40.35
2022-07-31T20:02:59.382Z,40.45
2022-07-31T20:05:28.636Z,39.79
2022-07-31T20:07:57.820Z,40.18
2022-07-31T20:10:27.175Z,40.65
2022-07-31T20:12:56.317Z,40.65
2022-07-31T20:15:25.441Z,40.93
2022-07-31T20:17:54.535Z,41.61
2022-07-31T20:20:23.706Z,40.87
2022-07-31T20:22:52.825Z,40.97
2022-07-31T20:25:21.899Z,40.97
2022-07-31T20:27:51.569Z,40.55
2022-07-31T20:30:22.151Z,39.80
2022-07-31T20:32:53.087Z,38.57
2022-07-31T20:35:33.051Z,36.84
2022-07-31T20:37:57.749Z,34.99
2022-07-31T20:40:29.094Z,36.29
2022-07-31T20:42:58.242Z,37.01
2022-07-31T20:45:28.336Z,37.39
2022-07-31T20:48:00.464Z,37.36
2022-07-31T20:50:29.722Z,36.75
2022-07-31T20:52:58.757Z,36.39
2022-07-31T20:55:27.887Z,36.44
2022-07-31T20:57:57.000Z,35.72
2022-07-31T21:00:26.342Z,35.72
2022-07-31T21:02:56.809Z,35.85
2022-07-31T21:05:27.501Z,35.60
2022-07-31T21:07:58.365Z,34.76
2022-07-31T21:10:29.650Z,35.01
2022-07-31T21:12:59.116Z,35.10
2022-07-31T21:15:42.781Z,35.10
2022-07-31T21:17:59.034Z,36.14
2022-07-31T21:20:48.234Z,35.72
2022-07-31T21:23:00.388Z,36.14
2022-07-31T21:25:31.701Z,36.14
2022-07-31T21:28:01.690Z,36.40
2022-07-31T21:30:30.924Z,36.85
2022-07-31T21:33:00.198Z,36.48
2022-07-31T21:35:36.184Z,38.19
2022-07-31T21:38:00.455Z,38.19
2022-07-31T21:40:30.099Z,37.60
2022-07-31T21:42:59.462Z,37.39
2022-07-31T21:45:33.076Z,37.49
2022-07-31T21:48:02.128Z,37.60
2022-07-31T21:50:31.323Z,37.06
2022-07-31T21:53:01.568Z,37.06
2022-07-31T21:55:30.811Z,36.71
2022-07-31T21:58:00.149Z,36.71
2022-07-31T22:00:29.925Z,36.66
2022-07-31T22:02:59.150Z,36.84
2022-07-31T22:05:45.225Z,36.84
2022-07-31T22:08:15.946Z,36.92
2022-07-31T22:10:45.109Z,36.88
2022-07-31T22:13:15.623Z,37.82
2022-07-31T22:15:57.056Z,37.82
2022-07-31T22:18:16.019Z,37.95
2022-07-31T22:20:45.738Z,37.25
2022-07-31T22:23:15.132Z,37.43
2022-07-31T22:25:46.721Z,37.43
2022-07-31T22:28:16.871Z,37.19
2022-07-31T22:30:46.820Z,38.20
2022-07-31T22:33:16.126Z,37.47
2022-07-31T22:35:58.138Z,37.86
2022-07-31T22:38:17.531Z,37.86
2022-07-31T22:40:46.535Z,38.07
2022-07-31T22:44:10.750Z,37.95
2022-07-31T22:45:47.440Z,38.13
2022-07-31T22:48:19.303Z,39.16
2022-07-31T22:50:49.239Z,38.50
2022-07-31T22:53:18.376Z,38.22
2022-07-31T22:55:47.722Z,38.41
2022-07-31T22:58:16.925Z,38.41
2022-07-31T23:00:48.054Z,38.05
2022-07-31T23:03:17.649Z,38.86
2022-07-31T23:06:13.124Z,38.24
2022-07-31T23:08:19.537Z,38.45
2022-07-31T23:10:48.835Z,37.72
2022-07-31T23:13:17.948Z,37.72
2022-07-31T23:15:47.133Z,36.96
2022-07-31T23:18:16.328Z,37.87
2022-07-31T23:20:45.530Z,37.99
2022-07-31T23:23:14.978Z,38.16
2022-07-31T23:25:44.232Z,38.16
2022-07-31T23:28:13.431Z,37.88
2022-07-31T23:30:42.747Z,37.88
2022-07-31T23:33:12.752Z,38.39
2022-07-31T23:35:41.947Z,38.18
2022-07-31T23:38:11.040Z,37.58
2022-07-31T23:40:40.584Z,37.58
2022-07-31T23:43:09.847Z,38.28
2022-07-31T23:45:38.950Z,38.28
2022-07-31T23:48:09.882Z,38.74
2022-07-31T23:50:40.639Z,38.52
2022-07-31T23:53:09.881Z,37.77
2022-07-31T23:55:42.838Z,37.59
2022-07-31T23:58:10.476Z,37.59
